sensor_id;sensor_type;location;lat;lon;timestamp;temperature;humidity
34646;DHT22;20857;47.808;12.482;2023-09-30T00:01:57;16.60;99.90
34646;DHT22;20857;47.808;12.482;2023-09-30T00:04:24;16.60;99.90
34646;DHT22;20857;47.808;12.482;2023-09-30T00:06:50;16.60;99.90
34646;DHT22;20857;47.808;12.482;2023-09-30T00:09:16;16.60;99.90
34646;DHT22;20857;47.808;12.482;2023-09-30T00:11:42;16.50;99.90
34646;DHT22;20857;47.808;12.482;2023-09-30T00:14:11;16.50;99.90
34646;DHT22;20857;47.808;12.482;2023-09-30T00:19:05;16.60;99.90
34646;DHT22;20857;47.808;12.482;2023-09-30T00:21:31;16.70;99.90
34646;DHT22;20857;47.808;12.482;2023-09-30T00:23:57;16.80;99.90
34646;DHT22;20857;47.808;12.482;2023-09-30T00:31:14;16.90;99.90
34646;DHT22;20857;47.808;12.482;2023-09-30T00:36:08;16.90;99.90
34646;DHT22;20857;47.808;12.482;2023-09-30T00:38:33;16.90;99.90
34646;DHT22;20857;47.808;12.482;2023-09-30T00:46:14;16.90;99.90
34646;DHT22;20857;47.808;12.482;2023-09-30T00:48:42;16.90;99.90
34646;DHT22;20857;47.808;12.482;2023-09-30T00:53:34;16.90;99.90
34646;DHT22;20857;47.808;12.482;2023-09-30T00:56:00;16.90;99.90
34646;DHT22;20857;47.808;12.482;2023-09-30T01:00:59;16.80;99.90
34646;DHT22;20857;47.808;12.482;2023-09-30T01:03:26;16.80;99.90
34646;DHT22;20857;47.808;12.482;2023-09-30T01:05:52;16.80;99.90
34646;DHT22;20857;47.808;12.482;2023-09-30T01:08:18;16.70;99.90
34646;DHT22;20857;47.808;12.482;2023-09-30T01:10:46;16.70;99.90
34646;DHT22;20857;47.808;12.482;2023-09-30T01:13:12;16.80;99.90
34646;DHT22;20857;47.808;12.482;2023-09-30T01:15:37;16.70;99.90
34646;DHT22;20857;47.808;12.482;2023-09-30T01:18:04;16.60;99.90
34646;DHT22;20857;47.808;12.482;2023-09-30T01:20:29;16.60;99.90
34646;DHT22;20857;47.808;12.482;2023-09-30T01:22:57;16.50;99.90
34646;DHT22;20857;47.808;12.482;2023-09-30T01:25:24;16.40;99.90
34646;DHT22;20857;47.808;12.482;2023-09-30T01:27:50;16.50;99.90
34646;DHT22;20857;47.808;12.482;2023-09-30T01:30:21;16.50;99.90
34646;DHT22;20857;47.808;12.482;2023-09-30T01:32:48;16.40;99.90
34646;DHT22;20857;47.808;12.482;2023-09-30T01:37:40;16.30;99.90
34646;DHT22;20857;47.808;12.482;2023-09-30T01:40:06;16.40;99.90
34646;DHT22;20857;47.808;12.482;2023-09-30T01:42:37;16.30;99.90
34646;DHT22;20857;47.808;12.482;2023-09-30T01:45:04;16.30;99.90
34646;DHT22;20857;47.808;12.482;2023-09-30T01:49:55;16.30;99.90
34646;DHT22;20857;47.808;12.482;2023-09-30T01:54:47;16.30;99.90
34646;DHT22;20857;47.808;12.482;2023-09-30T01:57:13;16.30;99.90
34646;DHT22;20857;47.808;12.482;2023-09-30T01:59:42;16.30;99.90
34646;DHT22;20857;47.808;12.482;2023-09-30T02:04:34;16.20;99.90
34646;DHT22;20857;47.808;12.482;2023-09-30T02:06:59;16.20;99.90
34646;DHT22;20857;47.808;12.482;2023-09-30T02:11:51;16.10;99.90
34646;DHT22;20857;47.808;12.482;2023-09-30T02:21:36;16.10;99.90
34646;DHT22;20857;47.808;12.482;2023-09-30T02:24:01;16.10;99.90
34646;DHT22;20857;47.808;12.482;2023-09-30T02:26:29;16.00;99.90
34646;DHT22;20857;47.808;12.482;2023-09-30T02:28:54;16.10;99.90
34646;DHT22;20857;47.808;12.482;2023-09-30T02:36:13;16.00;99.90
34646;DHT22;20857;47.808;12.482;2023-09-30T02:38:41;15.90;99.90
34646;DHT22;20857;47.808;12.482;2023-09-30T02:41:07;16.00;99.90
34646;DHT22;20857;47.808;12.482;2023-09-30T02:45:59;15.90;99.90
34646;DHT22;20857;47.808;12.482;2023-09-30T02:48:24;16.00;99.90
34646;DHT22;20857;47.808;12.482;2023-09-30T02:58:08;16.00;99.90
34646;DHT22;20857;47.808;12.482;2023-09-30T03:00:37;15.90;99.90
34646;DHT22;20857;47.808;12.482;2023-09-30T03:03:04;15.90;99.90
34646;DHT22;20857;47.808;12.482;2023-09-30T03:05:31;15.90;99.90
34646;DHT22;20857;47.808;12.482;2023-09-30T03:07:59;15.80;99.90
34646;DHT22;20857;47.808;12.482;2023-09-30T03:10:25;15.90;99.90
34646;DHT22;20857;47.808;12.482;2023-09-30T03:12:58;15.80;99.90
34646;DHT22;20857;47.808;12.482;2023-09-30T03:15:27;15.80;99.90
34646;DHT22;20857;47.808;12.482;2023-09-30T03:17:54;15.70;99.90
34646;DHT22;20857;47.808;12.482;2023-09-30T03:20:21;15.80;99.90
34646;DHT22;20857;47.808;12.482;2023-09-30T03:25:15;15.80;99.90
34646;DHT22;20857;47.808;12.482;2023-09-30T03:27:46;15.80;99.90
34646;DHT22;20857;47.808;12.482;2023-09-30T03:30:13;15.80;99.90
34646;DHT22;20857;47.808;12.482;2023-09-30T03:32:40;15.80;99.90
34646;DHT22;20857;47.808;12.482;2023-09-30T03:35:08;15.80;99.90
34646;DHT22;20857;47.808;12.482;2023-09-30T03:37:36;15.80;99.90
34646;DHT22;20857;47.808;12.482;2023-09-30T03:40:03;15.80;99.90
34646;DHT22;20857;47.808;12.482;2023-09-30T03:42:39;15.80;99.90
34646;DHT22;20857;47.808;12.482;2023-09-30T03:45:07;15.80;99.90
34646;DHT22;20857;47.808;12.482;2023-09-30T03:47:36;15.70;99.90
34646;DHT22;20857;47.808;12.482;2023-09-30T03:50:02;15.70;99.90
34646;DHT22;20857;47.808;12.482;2023-09-30T03:52:29;15.70;99.90
34646;DHT22;20857;47.808;12.482;2023-09-30T03:54:55;15.70;99.90
34646;DHT22;20857;47.808;12.482;2023-09-30T04:02:12;15.70;99.90
34646;DHT22;20857;47.808;12.482;2023-09-30T04:04:40;15.60;99.90
34646;DHT22;20857;47.808;12.482;2023-09-30T04:07:05;15.60;99.90
34646;DHT22;20857;47.808;12.482;2023-09-30T04:09:33;15.50;99.90
34646;DHT22;20857;47.808;12.482;2023-09-30T04:11:58;15.50;99.90
34646;DHT22;20857;47.808;12.482;2023-09-30T04:16:50;15.50;99.90
34646;DHT22;20857;47.808;12.482;2023-09-30T04:19:19;15.50;99.90
34646;DHT22;20857;47.808;12.482;2023-09-30T04:21:48;15.50;99.90
34646;DHT22;20857;47.808;12.482;2023-09-30T04:29:07;15.50;99.90
34646;DHT22;20857;47.808;12.482;2023-09-30T04:31:37;15.50;99.90
34646;DHT22;20857;47.808;12.482;2023-09-30T04:34:04;15.50;99.90
34646;DHT22;20857;47.808;12.482;2023-09-30T04:38:57;15.50;99.90
34646;DHT22;20857;47.808;12.482;2023-09-30T04:41:26;15.50;99.90
34646;DHT22;20857;47.808;12.482;2023-09-30T04:46:18;15.50;99.90
34646;DHT22;20857;47.808;12.482;2023-09-30T04:48:46;15.60;99.90
34646;DHT22;20857;47.808;12.482;2023-09-30T04:51:15;15.50;99.90
34646;DHT22;20857;47.808;12.482;2023-09-30T04:53:43;15.50;99.90
34646;DHT22;20857;47.808;12.482;2023-09-30T04:56:13;15.40;99.90
34646;DHT22;20857;47.808;12.482;2023-09-30T04:58:38;15.50;99.90
34646;DHT22;20857;47.808;12.482;2023-09-30T05:01:04;15.50;99.90
34646;DHT22;20857;47.808;12.482;2023-09-30T05:03:29;15.50;99.90
34646;DHT22;20857;47.808;12.482;2023-09-30T05:05:56;15.50;99.90
34646;DHT22;20857;47.808;12.482;2023-09-30T05:08:24;15.40;99.90
34646;DHT22;20857;47.808;12.482;2023-09-30T05:11:03;15.40;99.90
34646;DHT22;20857;47.808;12.482;2023-09-30T05:13:39;15.50;99.90
34646;DHT22;20857;47.808;12.482;2023-09-30T05:16:05;15.40;99.90
34646;DHT22;20857;47.808;12.482;2023-09-30T05:18:33;15.40;99.90
34646;DHT22;20857;47.808;12.482;2023-09-30T05:21:02;15.40;99.90
34646;DHT22;20857;47.808;12.482;2023-09-30T05:23:28;15.40;99.90
34646;DHT22;20857;47.808;12.482;2023-09-30T05:25:57;15.50;99.90
34646;DHT22;20857;47.808;12.482;2023-09-30T05:28:23;15.50;99.90
34646;DHT22;20857;47.808;12.482;2023-09-30T05:30:49;15.60;99.90
34646;DHT22;20857;47.808;12.482;2023-09-30T05:33:15;15.40;99.90
34646;DHT22;20857;47.808;12.482;2023-09-30T05:35:42;15.40;99.90
34646;DHT22;20857;47.808;12.482;2023-09-30T05:38:08;15.50;99.90
34646;DHT22;20857;47.808;12.482;2023-09-30T05:40:34;15.50;99.90
34646;DHT22;20857;47.808;12.482;2023-09-30T05:43:00;15.40;99.90
34646;DHT22;20857;47.808;12.482;2023-09-30T05:45:31;15.50;99.90
34646;DHT22;20857;47.808;12.482;2023-09-30T05:48:04;15.60;99.90
34646;DHT22;20857;47.808;12.482;2023-09-30T05:50:35;15.50;99.90
34646;DHT22;20857;47.808;12.482;2023-09-30T05:53:02;15.60;99.90
34646;DHT22;20857;47.808;12.482;2023-09-30T05:55:28;15.60;99.90
34646;DHT22;20857;47.808;12.482;2023-09-30T05:57:55;15.70;99.90
34646;DHT22;20857;47.808;12.482;2023-09-30T06:00:21;15.70;99.90
34646;DHT22;20857;47.808;12.482;2023-09-30T06:02:59;15.70;99.90
34646;DHT22;20857;47.808;12.482;2023-09-30T06:05:25;15.70;99.90
34646;DHT22;20857;47.808;12.482;2023-09-30T06:07:56;15.70;99.90
34646;DHT22;20857;47.808;12.482;2023-09-30T06:10:22;15.70;99.90
34646;DHT22;20857;47.808;12.482;2023-09-30T06:12:50;15.80;99.90
34646;DHT22;20857;47.808;12.482;2023-09-30T06:15:20;15.80;99.90
34646;DHT22;20857;47.808;12.482;2023-09-30T06:18:19;15.70;99.90
34646;DHT22;20857;47.808;12.482;2023-09-30T06:23:14;16.00;99.90
34646;DHT22;20857;47.808;12.482;2023-09-30T06:28:07;16.10;99.90
34646;DHT22;20857;47.808;12.482;2023-09-30T06:30:34;16.20;99.90
34646;DHT22;20857;47.808;12.482;2023-09-30T06:33:00;16.20;99.90
34646;DHT22;20857;47.808;12.482;2023-09-30T06:35:27;16.20;99.90
34646;DHT22;20857;47.808;12.482;2023-09-30T06:37:53;16.20;99.90
34646;DHT22;20857;47.808;12.482;2023-09-30T06:40:20;16.20;99.90
34646;DHT22;20857;47.808;12.482;2023-09-30T06:42:45;16.20;99.90
34646;DHT22;20857;47.808;12.482;2023-09-30T06:47:40;16.30;99.90
34646;DHT22;20857;47.808;12.482;2023-09-30T06:50:11;16.30;99.90
34646;DHT22;20857;47.808;12.482;2023-09-30T06:52:42;16.30;99.90
34646;DHT22;20857;47.808;12.482;2023-09-30T06:57:35;16.40;99.90
34646;DHT22;20857;47.808;12.482;2023-09-30T07:00:05;16.40;99.90
34646;DHT22;20857;47.808;12.482;2023-09-30T07:02:34;16.40;99.90
34646;DHT22;20857;47.808;12.482;2023-09-30T07:09:52;16.50;99.90
34646;DHT22;20857;47.808;12.482;2023-09-30T07:12:18;16.60;99.90
34646;DHT22;20857;47.808;12.482;2023-09-30T07:14:44;16.70;99.90
34646;DHT22;20857;47.808;12.482;2023-09-30T07:17:10;16.80;99.90
34646;DHT22;20857;47.808;12.482;2023-09-30T07:22:02;17.00;99.90
34646;DHT22;20857;47.808;12.482;2023-09-30T07:24:28;17.20;99.90
34646;DHT22;20857;47.808;12.482;2023-09-30T07:26:55;17.30;99.90
34646;DHT22;20857;47.808;12.482;2023-09-30T07:29:21;17.30;99.90
34646;DHT22;20857;47.808;12.482;2023-09-30T07:31:46;17.50;99.90
34646;DHT22;20857;47.808;12.482;2023-09-30T07:34:27;17.50;99.90
34646;DHT22;20857;47.808;12.482;2023-09-30T07:36:56;17.50;99.90
34646;DHT22;20857;47.808;12.482;2023-09-30T07:39:21;17.60;99.90
34646;DHT22;20857;47.808;12.482;2023-09-30T07:46:40;17.70;99.90
34646;DHT22;20857;47.808;12.482;2023-09-30T07:49:09;17.70;99.90
34646;DHT22;20857;47.808;12.482;2023-09-30T07:51:38;17.70;99.90
34646;DHT22;20857;47.808;12.482;2023-09-30T07:54:06;17.80;99.90
34646;DHT22;20857;47.808;12.482;2023-09-30T07:56:32;18.00;99.90
34646;DHT22;20857;47.808;12.482;2023-09-30T08:01:23;18.00;99.90
34646;DHT22;20857;47.808;12.482;2023-09-30T08:06:16;18.20;99.90
34646;DHT22;20857;47.808;12.482;2023-09-30T08:08:42;18.20;99.90
34646;DHT22;20857;47.808;12.482;2023-09-30T08:11:08;18.20;99.90
34646;DHT22;20857;47.808;12.482;2023-09-30T08:13:36;18.20;99.90
34646;DHT22;20857;47.808;12.482;2023-09-30T08:16:02;18.20;99.90
34646;DHT22;20857;47.808;12.482;2023-09-30T08:20:53;18.10;99.90
34646;DHT22;20857;47.808;12.482;2023-09-30T08:25:48;17.90;99.90
34646;DHT22;20857;47.808;12.482;2023-09-30T08:28:13;18.00;99.90
34646;DHT22;20857;47.808;12.482;2023-09-30T08:30:39;18.00;99.90
34646;DHT22;20857;47.808;12.482;2023-09-30T08:33:05;17.90;99.90
34646;DHT22;20857;47.808;12.482;2023-09-30T08:35:35;18.00;99.90
34646;DHT22;20857;47.808;12.482;2023-09-30T08:38:02;18.00;99.90
34646;DHT22;20857;47.808;12.482;2023-09-30T08:45:19;18.20;99.90
34646;DHT22;20857;47.808;12.482;2023-09-30T08:47:46;18.20;99.90
34646;DHT22;20857;47.808;12.482;2023-09-30T08:50:12;18.20;99.90
34646;DHT22;20857;47.808;12.482;2023-09-30T08:52:40;18.30;99.90
34646;DHT22;20857;47.808;12.482;2023-09-30T08:55:10;18.30;99.90
34646;DHT22;20857;47.808;12.482;2023-09-30T08:57:42;18.50;99.90
34646;DHT22;20857;47.808;12.482;2023-09-30T09:00:12;18.60;99.90
34646;DHT22;20857;47.808;12.482;2023-09-30T09:02:39;18.60;99.90
34646;DHT22;20857;47.808;12.482;2023-09-30T09:05:05;18.60;99.90
34646;DHT22;20857;47.808;12.482;2023-09-30T09:07:32;18.70;99.90
34646;DHT22;20857;47.808;12.482;2023-09-30T09:10:11;18.70;99.90
34646;DHT22;20857;47.808;12.482;2023-09-30T09:12:39;18.30;99.90
34646;DHT22;20857;47.808;12.482;2023-09-30T09:15:07;18.10;99.90
34646;DHT22;20857;47.808;12.482;2023-09-30T09:17:43;18.10;99.90
34646;DHT22;20857;47.808;12.482;2023-09-30T09:20:30;18.20;99.90
34646;DHT22;20857;47.808;12.482;2023-09-30T09:22:56;18.50;99.90
34646;DHT22;20857;47.808;12.482;2023-09-30T09:25:25;18.70;99.90
34646;DHT22;20857;47.808;12.482;2023-09-30T09:27:52;18.90;99.90
34646;DHT22;20857;47.808;12.482;2023-09-30T09:30:26;19.00;99.90
34646;DHT22;20857;47.808;12.482;2023-09-30T09:35:22;18.90;99.90
34646;DHT22;20857;47.808;12.482;2023-09-30T09:38:04;18.80;99.90
34646;DHT22;20857;47.808;12.482;2023-09-30T09:40:34;18.80;99.90
34646;DHT22;20857;47.808;12.482;2023-09-30T09:43:00;18.90;99.90
34646;DHT22;20857;47.808;12.482;2023-09-30T09:45:32;18.90;99.90
34646;DHT22;20857;47.808;12.482;2023-09-30T09:47:58;18.90;99.90
34646;DHT22;20857;47.808;12.482;2023-09-30T09:50:24;18.90;99.90
34646;DHT22;20857;47.808;12.482;2023-09-30T09:52:54;19.00;99.90
34646;DHT22;20857;47.808;12.482;2023-09-30T09:55:22;19.20;99.90
34646;DHT22;20857;47.808;12.482;2023-09-30T09:57:49;19.30;99.90
34646;DHT22;20857;47.808;12.482;2023-09-30T10:00:20;19.20;99.90
34646;DHT22;20857;47.808;12.482;2023-09-30T10:02:47;19.00;99.90
34646;DHT22;20857;47.808;12.482;2023-09-30T10:05:14;19.10;99.90
34646;DHT22;20857;47.808;12.482;2023-09-30T10:07:57;18.80;99.90
34646;DHT22;20857;47.808;12.482;2023-09-30T10:10:26;18.70;99.90
34646;DHT22;20857;47.808;12.482;2023-09-30T10:12:51;18.50;99.90
34646;DHT22;20857;47.808;12.482;2023-09-30T10:18:02;18.50;99.90
34646;DHT22;20857;47.808;12.482;2023-09-30T10:20:42;18.50;99.90
34646;DHT22;20857;47.808;12.482;2023-09-30T10:23:28;18.70;99.90
34646;DHT22;20857;47.808;12.482;2023-09-30T10:28:44;19.30;99.90
34646;DHT22;20857;47.808;12.482;2023-09-30T10:31:19;19.10;99.90
34646;DHT22;20857;47.808;12.482;2023-09-30T10:36:28;19.00;99.90
34646;DHT22;20857;47.808;12.482;2023-09-30T10:38:54;19.00;99.90
34646;DHT22;20857;47.808;12.482;2023-09-30T10:46:51;19.20;99.90
34646;DHT22;20857;47.808;12.482;2023-09-30T10:49:30;19.20;99.90
34646;DHT22;20857;47.808;12.482;2023-09-30T10:51:58;18.10;99.90
34646;DHT22;20857;47.808;12.482;2023-09-30T10:54:29;18.70;99.90
34646;DHT22;20857;47.808;12.482;2023-09-30T10:56:55;18.70;99.90
34646;DHT22;20857;47.808;12.482;2023-09-30T10:59:25;18.80;99.90
34646;DHT22;20857;47.808;12.482;2023-09-30T11:01:51;19.00;99.90
34646;DHT22;20857;47.808;12.482;2023-09-30T11:04:21;19.00;99.90
34646;DHT22;20857;47.808;12.482;2023-09-30T11:06:49;19.20;99.90
34646;DHT22;20857;47.808;12.482;2023-09-30T11:09:28;19.40;99.90
34646;DHT22;20857;47.808;12.482;2023-09-30T11:11:54;19.40;99.90
34646;DHT22;20857;47.808;12.482;2023-09-30T11:14:27;19.40;99.90
34646;DHT22;20857;47.808;12.482;2023-09-30T11:16:56;19.40;99.90
34646;DHT22;20857;47.808;12.482;2023-09-30T11:19:22;19.40;99.90
34646;DHT22;20857;47.808;12.482;2023-09-30T11:21:54;19.50;99.90
34646;DHT22;20857;47.808;12.482;2023-09-30T11:24:26;19.80;99.90
34646;DHT22;20857;47.808;12.482;2023-09-30T11:26:55;19.60;99.90
34646;DHT22;20857;47.808;12.482;2023-09-30T11:29:23;19.20;99.90
34646;DHT22;20857;47.808;12.482;2023-09-30T11:31:50;18.80;99.90
34646;DHT22;20857;47.808;12.482;2023-09-30T11:34:18;18.80;99.90
34646;DHT22;20857;47.808;12.482;2023-09-30T11:36:52;19.00;99.90
34646;DHT22;20857;47.808;12.482;2023-09-30T11:39:26;19.40;99.90
34646;DHT22;20857;47.808;12.482;2023-09-30T11:41:53;19.70;99.90
34646;DHT22;20857;47.808;12.482;2023-09-30T11:44:20;20.00;99.90
34646;DHT22;20857;47.808;12.482;2023-09-30T11:46:57;20.00;99.90
34646;DHT22;20857;47.808;12.482;2023-09-30T11:49:28;20.20;99.90
34646;DHT22;20857;47.808;12.482;2023-09-30T11:51:56;20.40;99.90
34646;DHT22;20857;47.808;12.482;2023-09-30T11:54:22;20.30;99.90
34646;DHT22;20857;47.808;12.482;2023-09-30T11:59:16;20.30;99.90
34646;DHT22;20857;47.808;12.482;2023-09-30T12:01:42;20.00;99.90
34646;DHT22;20857;47.808;12.482;2023-09-30T12:04:08;20.00;99.90
34646;DHT22;20857;47.808;12.482;2023-09-30T12:06:34;19.80;99.90
34646;DHT22;20857;47.808;12.482;2023-09-30T12:09:03;19.70;99.90
34646;DHT22;20857;47.808;12.482;2023-09-30T12:11:29;19.70;99.90
34646;DHT22;20857;47.808;12.482;2023-09-30T12:13:54;19.70;99.90
34646;DHT22;20857;47.808;12.482;2023-09-30T12:16:25;19.70;99.90
34646;DHT22;20857;47.808;12.482;2023-09-30T12:21:17;19.60;99.90
34646;DHT22;20857;47.808;12.482;2023-09-30T12:23:45;19.60;99.90
34646;DHT22;20857;47.808;12.482;2023-09-30T12:26:11;19.60;99.90
34646;DHT22;20857;47.808;12.482;2023-09-30T12:31:06;19.50;99.90
34646;DHT22;20857;47.808;12.482;2023-09-30T12:33:31;19.50;99.90
34646;DHT22;20857;47.808;12.482;2023-09-30T12:35:58;19.60;99.90
34646;DHT22;20857;47.808;12.482;2023-09-30T12:38:26;19.70;99.90
34646;DHT22;20857;47.808;12.482;2023-09-30T12:40:54;20.00;99.90
34646;DHT22;20857;47.808;12.482;2023-09-30T12:43:21;20.00;99.90
34646;DHT22;20857;47.808;12.482;2023-09-30T12:45:47;20.20;99.90
34646;DHT22;20857;47.808;12.482;2023-09-30T12:50:39;19.90;99.90
34646;DHT22;20857;47.808;12.482;2023-09-30T12:55:32;19.40;99.90
34646;DHT22;20857;47.808;12.482;2023-09-30T12:57:58;19.40;99.90
34646;DHT22;20857;47.808;12.482;2023-09-30T13:00:26;19.40;99.90
34646;DHT22;20857;47.808;12.482;2023-09-30T13:02:52;19.40;99.90
34646;DHT22;20857;47.808;12.482;2023-09-30T13:05:18;19.30;99.90
34646;DHT22;20857;47.808;12.482;2023-09-30T13:07:45;19.60;99.90
34646;DHT22;20857;47.808;12.482;2023-09-30T13:10:11;19.60;99.90
34646;DHT22;20857;47.808;12.482;2023-09-30T13:12:38;19.80;99.90
34646;DHT22;20857;47.808;12.482;2023-09-30T13:15:05;20.10;99.90
34646;DHT22;20857;47.808;12.482;2023-09-30T13:17:31;20.30;99.90
34646;DHT22;20857;47.808;12.482;2023-09-30T13:19:57;20.50;99.90
34646;DHT22;20857;47.808;12.482;2023-09-30T13:22:23;20.50;99.90
34646;DHT22;20857;47.808;12.482;2023-09-30T13:27:15;20.30;99.90
34646;DHT22;20857;47.808;12.482;2023-09-30T13:29:41;20.10;99.90
34646;DHT22;20857;47.808;12.482;2023-09-30T13:32:09;20.50;99.90
34646;DHT22;20857;47.808;12.482;2023-09-30T13:34:34;20.40;99.90
34646;DHT22;20857;47.808;12.482;2023-09-30T13:39:28;20.50;99.90
34646;DHT22;20857;47.808;12.482;2023-09-30T13:44:20;20.30;99.90
34646;DHT22;20857;47.808;12.482;2023-09-30T13:46:47;20.20;99.90
34646;DHT22;20857;47.808;12.482;2023-09-30T13:49:13;20.10;99.90
34646;DHT22;20857;47.808;12.482;2023-09-30T13:51:39;20.10;99.90
34646;DHT22;20857;47.808;12.482;2023-09-30T13:54:05;20.10;99.90
34646;DHT22;20857;47.808;12.482;2023-09-30T13:56:33;20.10;99.90
34646;DHT22;20857;47.808;12.482;2023-09-30T13:58:58;20.10;99.90
34646;DHT22;20857;47.808;12.482;2023-09-30T14:01:25;20.00;99.90
34646;DHT22;20857;47.808;12.482;2023-09-30T14:03:50;20.00;99.90
34646;DHT22;20857;47.808;12.482;2023-09-30T14:06:40;19.90;99.90
34646;DHT22;20857;47.808;12.482;2023-09-30T14:09:06;19.90;99.90
34646;DHT22;20857;47.808;12.482;2023-09-30T14:11:31;20.00;99.90
34646;DHT22;20857;47.808;12.482;2023-09-30T14:16:23;20.10;99.90
34646;DHT22;20857;47.808;12.482;2023-09-30T14:21:15;20.00;99.90
34646;DHT22;20857;47.808;12.482;2023-09-30T14:28:37;19.40;99.90
34646;DHT22;20857;47.808;12.482;2023-09-30T14:31:03;19.30;99.90
34646;DHT22;20857;47.808;12.482;2023-09-30T14:33:29;19.10;99.90
34646;DHT22;20857;47.808;12.482;2023-09-30T14:35:55;19.10;99.90
34646;DHT22;20857;47.808;12.482;2023-09-30T14:38:21;19.10;99.90
34646;DHT22;20857;47.808;12.482;2023-09-30T14:40:47;19.10;99.90
34646;DHT22;20857;47.808;12.482;2023-09-30T14:43:13;19.20;99.90
34646;DHT22;20857;47.808;12.482;2023-09-30T14:45:39;19.30;99.90
34646;DHT22;20857;47.808;12.482;2023-09-30T14:48:06;19.20;99.90
34646;DHT22;20857;47.808;12.482;2023-09-30T14:50:32;19.30;99.90
34646;DHT22;20857;47.808;12.482;2023-09-30T14:52:58;19.30;99.90
34646;DHT22;20857;47.808;12.482;2023-09-30T14:58:08;19.60;99.90
34646;DHT22;20857;47.808;12.482;2023-09-30T15:00:34;19.60;99.90
34646;DHT22;20857;47.808;12.482;2023-09-30T15:03:14;19.50;99.90
34646;DHT22;20857;47.808;12.482;2023-09-30T15:05:42;19.50;99.90
34646;DHT22;20857;47.808;12.482;2023-09-30T15:10:36;19.40;99.90
34646;DHT22;20857;47.808;12.482;2023-09-30T15:13:02;19.20;99.90
34646;DHT22;20857;47.808;12.482;2023-09-30T15:15:29;19.10;99.90
34646;DHT22;20857;47.808;12.482;2023-09-30T15:17:55;18.90;99.90
34646;DHT22;20857;47.808;12.482;2023-09-30T15:20:20;18.80;99.90
34646;DHT22;20857;47.808;12.482;2023-09-30T15:22:46;19.00;99.90
34646;DHT22;20857;47.808;12.482;2023-09-30T15:27:38;18.90;99.90
34646;DHT22;20857;47.808;12.482;2023-09-30T15:30:04;18.80;99.90
34646;DHT22;20857;47.808;12.482;2023-09-30T15:32:31;18.70;99.90
34646;DHT22;20857;47.808;12.482;2023-09-30T15:38:17;18.50;99.90
34646;DHT22;20857;47.808;12.482;2023-09-30T15:43:24;18.40;99.90
34646;DHT22;20857;47.808;12.482;2023-09-30T15:45:50;18.30;99.90
34646;DHT22;20857;47.808;12.482;2023-09-30T15:48:16;18.20;99.90
34646;DHT22;20857;47.808;12.482;2023-09-30T15:50:43;18.00;99.90
34646;DHT22;20857;47.808;12.482;2023-09-30T15:53:09;18.00;99.90
34646;DHT22;20857;47.808;12.482;2023-09-30T15:55:34;17.90;99.90
34646;DHT22;20857;47.808;12.482;2023-09-30T15:58:01;17.90;99.90
34646;DHT22;20857;47.808;12.482;2023-09-30T16:02:54;17.80;99.90
34646;DHT22;20857;47.808;12.482;2023-09-30T16:05:19;17.70;99.90
34646;DHT22;20857;47.808;12.482;2023-09-30T16:12:37;17.50;99.90
34646;DHT22;20857;47.808;12.482;2023-09-30T16:15:04;17.50;99.90
34646;DHT22;20857;47.808;12.482;2023-09-30T16:17:35;17.50;99.90
34646;DHT22;20857;47.808;12.482;2023-09-30T16:20:01;17.40;99.90
34646;DHT22;20857;47.808;12.482;2023-09-30T16:22:26;17.60;99.90
34646;DHT22;20857;47.808;12.482;2023-09-30T16:27:18;17.20;99.90
34646;DHT22;20857;47.808;12.482;2023-09-30T16:34:55;16.90;99.90
34646;DHT22;20857;47.808;12.482;2023-09-30T16:37:24;16.70;99.90
34646;DHT22;20857;47.808;12.482;2023-09-30T16:39:50;16.60;99.90
34646;DHT22;20857;47.808;12.482;2023-09-30T16:45:01;16.40;99.90
34646;DHT22;20857;47.808;12.482;2023-09-30T16:47:31;16.30;99.90
34646;DHT22;20857;47.808;12.482;2023-09-30T16:50:16;16.20;99.90
34646;DHT22;20857;47.808;12.482;2023-09-30T16:55:09;15.90;99.90
34646;DHT22;20857;47.808;12.482;2023-09-30T16:57:37;16.20;99.90
34646;DHT22;20857;47.808;12.482;2023-09-30T17:00:03;15.60;99.90
34646;DHT22;20857;47.808;12.482;2023-09-30T17:02:29;15.50;99.90
34646;DHT22;20857;47.808;12.482;2023-09-30T17:04:54;15.90;99.90
34646;DHT22;20857;47.808;12.482;2023-09-30T17:07:22;15.40;99.90
34646;DHT22;20857;47.808;12.482;2023-09-30T17:12:14;15.40;99.90
34646;DHT22;20857;47.808;12.482;2023-09-30T17:14:40;15.40;99.90
34646;DHT22;20857;47.808;12.482;2023-09-30T17:21:57;15.10;99.90
34646;DHT22;20857;47.808;12.482;2023-09-30T17:26:49;15.00;99.90
34646;DHT22;20857;47.808;12.482;2023-09-30T17:29:14;14.30;99.90
34646;DHT22;20857;47.808;12.482;2023-09-30T17:41:24;14.90;99.90
34646;DHT22;20857;47.808;12.482;2023-09-30T17:43:49;14.90;99.90
34646;DHT22;20857;47.808;12.482;2023-09-30T17:46:16;14.80;99.90
34646;DHT22;20857;47.808;12.482;2023-09-30T17:48:46;14.70;99.90
34646;DHT22;20857;47.808;12.482;2023-09-30T17:51:18;14.70;99.90
34646;DHT22;20857;47.808;12.482;2023-09-30T17:53:50;14.70;99.90
34646;DHT22;20857;47.808;12.482;2023-09-30T17:56:17;14.70;99.90
34646;DHT22;20857;47.808;12.482;2023-09-30T17:58:43;14.90;99.90
34646;DHT22;20857;47.808;12.482;2023-09-30T18:03:35;14.60;99.90
34646;DHT22;20857;47.808;12.482;2023-09-30T18:06:08;14.50;99.90
34646;DHT22;20857;47.808;12.482;2023-09-30T18:08:38;14.40;99.90
34646;DHT22;20857;47.808;12.482;2023-09-30T18:11:05;14.30;99.90
34646;DHT22;20857;47.808;12.482;2023-09-30T18:13:31;14.30;99.90
34646;DHT22;20857;47.808;12.482;2023-09-30T18:15:58;14.30;99.90
34646;DHT22;20857;47.808;12.482;2023-09-30T18:18:23;14.20;99.90
34646;DHT22;20857;47.808;12.482;2023-09-30T18:20:50;14.20;99.90
34646;DHT22;20857;47.808;12.482;2023-09-30T18:23:16;14.10;99.90
34646;DHT22;20857;47.808;12.482;2023-09-30T18:25:41;14.00;99.90
34646;DHT22;20857;47.808;12.482;2023-09-30T18:28:10;14.20;99.90
34646;DHT22;20857;47.808;12.482;2023-09-30T18:30:38;14.10;99.90
34646;DHT22;20857;47.808;12.482;2023-09-30T18:33:19;14.10;99.90
34646;DHT22;20857;47.808;12.482;2023-09-30T18:35:45;14.10;99.90
34646;DHT22;20857;47.808;12.482;2023-09-30T18:40:39;14.20;99.90
34646;DHT22;20857;47.808;12.482;2023-09-30T18:43:06;14.10;99.90
34646;DHT22;20857;47.808;12.482;2023-09-30T18:45:37;14.00;99.90
34646;DHT22;20857;47.808;12.482;2023-09-30T18:48:04;14.10;99.90
34646;DHT22;20857;47.808;12.482;2023-09-30T18:52:57;13.80;99.90
34646;DHT22;20857;47.808;12.482;2023-09-30T18:55:23;13.70;99.90